createdAt,value
2019-03-05T00:00:52.904Z,5.91
2019-03-05T00:03:27.622Z,5.80
2019-03-05T00:06:02.737Z,5.54
2019-03-05T00:08:37.183Z,5.47
2019-03-05T00:11:11.675Z,5.48
2019-03-05T00:13:46.235Z,5.35
2019-03-05T00:16:20.845Z,5.22
2019-03-05T00:18:55.333Z,5.41
2019-03-05T00:21:30.120Z,5.44
2019-03-05T00:25:06.797Z,5.26
2019-03-05T00:28:21.851Z,5.35
2019-03-05T00:31:14.167Z,5.26
2019-03-05T00:34:51.844Z,5.10
2019-03-05T00:38:15.159Z,5.33
2019-03-05T00:41:17.565Z,5.19
2019-03-05T00:44:20.713Z,5.57
2019-03-05T00:47:46.527Z,5.57
2019-03-05T00:51:55.008Z,5.47
2019-03-05T00:55:56.308Z,5.47
2019-03-05T00:59:11.830Z,5.53
2019-03-05T01:02:49.669Z,5.77
2019-03-05T01:06:17.520Z,5.86
2019-03-05T01:08:54.549Z,5.84
2019-03-05T01:11:29.261Z,5.83
2019-03-05T01:14:04.674Z,5.83
2019-03-05T01:16:39.106Z,5.81
2019-03-05T01:19:14.316Z,5.65
2019-03-05T01:21:49.064Z,5.89
2019-03-05T01:26:32.050Z,6.04
2019-03-05T01:29:06.822Z,6.09
2019-03-05T01:32:07.692Z,5.87
2019-03-05T01:34:50.321Z,5.77
2019-03-05T01:37:25.313Z,5.48
2019-03-05T01:40:19.542Z,5.53
2019-03-05T01:42:53.878Z,5.84
2019-03-05T01:45:28.515Z,5.88
2019-03-05T01:48:03.153Z,5.76
2019-03-05T01:50:37.806Z,5.68
2019-03-05T01:53:12.679Z,5.51
2019-03-05T01:55:47.124Z,5.55
2019-03-05T01:58:21.568Z,5.78
2019-03-05T02:00:56.158Z,5.99
2019-03-05T02:03:30.632Z,5.99
2019-03-05T02:06:05.043Z,5.75
2019-03-05T02:08:40.192Z,5.75
2019-03-05T02:11:16.569Z,5.72
2019-03-05T02:13:51.178Z,5.55
2019-03-05T02:16:26.068Z,5.55
2019-03-05T02:19:49.317Z,6.07
2019-03-05T02:23:09.819Z,5.89
2019-03-05T02:26:29.588Z,5.89
2019-03-05T02:29:58.298Z,5.90
2019-03-05T02:34:00.855Z,5.90
2019-03-05T02:37:59.547Z,5.70
2019-03-05T02:41:15.925Z,5.86
2019-03-05T02:44:45.796Z,5.86
2019-03-05T02:48:25.798Z,5.88
2019-03-05T02:51:41.005Z,5.82
2019-03-05T02:55:19.691Z,5.82
2019-03-05T02:57:51.705Z,5.77
2019-03-05T03:00:51.604Z,5.88
2019-03-05T03:03:34.135Z,5.62
2019-03-05T03:06:20.991Z,6.01
2019-03-05T03:10:19.525Z,6.00
2019-03-05T03:12:54.584Z,5.87
2019-03-05T03:15:28.643Z,5.87
2019-03-05T03:18:03.324Z,5.92
2019-03-05T03:20:37.852Z,5.92
2019-03-05T03:23:12.329Z,5.93
2019-03-05T03:25:47.023Z,5.83
2019-03-05T03:28:21.944Z,6.07
2019-03-05T03:30:56.669Z,6.09
2019-03-05T03:33:32.316Z,6.15
2019-03-05T03:36:06.866Z,6.15
2019-03-05T03:38:42.818Z,5.91
2019-03-05T03:41:17.321Z,5.88
2019-03-05T03:43:51.834Z,5.80
2019-03-05T03:46:26.582Z,5.87
2019-03-05T03:49:00.530Z,6.13
2019-03-05T03:51:41.608Z,6.13
2019-03-05T03:54:16.494Z,6.13
2019-03-05T03:56:51.033Z,5.49
2019-03-05T03:59:25.676Z,5.49
2019-03-05T04:02:00.455Z,5.77
2019-03-05T04:04:34.822Z,5.57
2019-03-05T04:07:09.525Z,5.51
2019-03-05T04:09:44.126Z,5.41
2019-03-05T04:12:20.101Z,5.42
2019-03-05T04:14:55.029Z,5.30
2019-03-05T04:17:30.603Z,5.53
2019-03-05T04:20:06.662Z,5.23
2019-03-05T04:22:40.593Z,5.23
2019-03-05T04:25:15.516Z,5.24
2019-03-05T04:27:51.326Z,5.17
2019-03-05T04:30:26.454Z,5.17
2019-03-05T04:33:01.120Z,5.41
2019-03-05T04:35:35.813Z,5.12
2019-03-05T04:38:10.833Z,4.99
2019-03-05T04:40:45.444Z,4.98
2019-03-05T04:43:20.338Z,5.07
2019-03-05T04:46:05.480Z,5.10
2019-03-05T04:48:40.978Z,4.92
2019-03-05T04:51:23.539Z,4.95
2019-03-05T04:53:58.458Z,4.88
2019-03-05T04:56:33.105Z,5.08
2019-03-05T04:59:07.588Z,5.08
2019-03-05T05:01:42.069Z,4.84
2019-03-05T05:04:17.218Z,4.84
2019-03-05T05:06:51.624Z,4.91
2019-03-05T05:09:26.597Z,4.83
2019-03-05T05:12:01.347Z,4.66
2019-03-05T05:14:36.012Z,4.68
2019-03-05T05:17:10.758Z,4.34
2019-03-05T05:19:45.570Z,4.38
2019-03-05T05:22:19.483Z,4.33
2019-03-05T05:24:54.062Z,4.26
2019-03-05T05:27:29.537Z,4.26
2019-03-05T05:30:04.743Z,4.34
2019-03-05T05:32:39.537Z,4.34
2019-03-05T05:35:14.317Z,4.16
2019-03-05T05:37:51.972Z,3.95
2019-03-05T05:40:30.557Z,3.84
2019-03-05T05:43:08.318Z,4.72
2019-03-05T05:45:49.321Z,4.72
2019-03-05T05:48:23.826Z,4.75
2019-03-05T05:50:58.551Z,4.61
2019-03-05T05:53:33.868Z,4.73
2019-03-05T05:56:08.664Z,4.73
2019-03-05T05:58:43.074Z,4.68
2019-03-05T06:01:17.812Z,4.66
2019-03-05T06:03:52.455Z,4.69
2019-03-05T06:06:27.156Z,5.04
2019-03-05T06:09:01.653Z,5.04
2019-03-05T06:11:38.715Z,4.52
2019-03-05T06:14:13.568Z,4.52
2019-03-05T06:16:48.322Z,4.74
2019-03-05T06:19:23.069Z,4.74
2019-03-05T06:21:57.852Z,4.61
2019-03-05T06:24:33.014Z,4.62
2019-03-05T06:27:07.613Z,4.89
2019-03-05T06:29:41.793Z,4.49
2019-03-05T06:32:17.479Z,4.90
2019-03-05T06:34:52.516Z,5.00
2019-03-05T06:37:27.299Z,5.08
2019-03-05T06:40:02.520Z,5.00
2019-03-05T06:42:37.836Z,5.13
2019-03-05T06:45:16.336Z,5.13
2019-03-05T06:47:51.121Z,5.70
2019-03-05T06:50:26.610Z,5.89
2019-03-05T06:53:00.462Z,5.90
2019-03-05T06:55:35.160Z,6.59
2019-03-05T06:58:11.686Z,6.59
2019-03-05T07:00:45.511Z,6.87
2019-03-05T07:03:19.949Z,7.03
2019-03-05T07:07:06.761Z,7.36
2019-03-05T07:10:28.135Z,7.36
2019-03-05T07:13:10.079Z,7.17
2019-03-05T07:16:43.543Z,7.29
2019-03-05T07:20:23.390Z,7.60
2019-03-05T07:24:11.601Z,7.60
2019-03-05T07:26:46.324Z,7.76
2019-03-05T07:29:21.052Z,7.59
2019-03-05T07:31:55.656Z,7.89
2019-03-05T07:34:30.924Z,8.05
2019-03-05T07:37:09.308Z,8.17
2019-03-05T07:39:44.478Z,8.22
2019-03-05T07:42:19.092Z,8.84
2019-03-05T07:44:53.998Z,8.95
2019-03-05T07:47:28.858Z,9.38
2019-03-05T07:51:01.948Z,9.86
2019-03-05T07:53:36.844Z,10.03
2019-03-05T07:56:56.993Z,10.24
2019-03-05T08:00:18.517Z,10.73
2019-03-05T08:02:53.468Z,10.52
2019-03-05T08:05:28.512Z,10.36
2019-03-05T08:08:57.792Z,10.36
2019-03-05T08:11:32.852Z,10.72
2019-03-05T08:14:53.146Z,11.23
2019-03-05T08:17:28.572Z,11.25
2019-03-05T08:20:06.453Z,11.87
2019-03-05T08:22:42.790Z,13.79
2019-03-05T08:25:17.793Z,14.29
2019-03-05T08:27:53.135Z,16.30
2019-03-05T08:30:28.304Z,16.92
2019-03-05T08:33:03.179Z,18.51
2019-03-05T08:35:39.079Z,19.59
2019-03-05T08:38:14.335Z,18.06
2019-03-05T08:40:49.590Z,16.88
2019-03-05T08:43:23.546Z,16.24
2019-03-05T08:45:57.515Z,18.71
2019-03-05T08:48:32.458Z,18.71
2019-03-05T08:51:07.611Z,18.56
2019-03-05T08:53:49.465Z,18.56
2019-03-05T08:56:18.632Z,17.05
2019-03-05T08:58:52.558Z,16.33
2019-03-05T09:01:26.675Z,13.84
2019-03-05T09:04:01.761Z,13.84
2019-03-05T09:06:37.588Z,13.73
2019-03-05T09:09:16.153Z,12.62
2019-03-05T09:11:52.490Z,12.15
2019-03-05T09:14:27.553Z,12.76
2019-03-05T09:17:02.042Z,13.16
2019-03-05T09:19:37.141Z,13.16
2019-03-05T09:22:12.143Z,13.17
2019-03-05T09:24:47.038Z,13.83
2019-03-05T09:27:21.839Z,15.08
2019-03-05T09:29:57.017Z,16.69
2019-03-05T09:32:31.873Z,17.51
2019-03-05T09:35:08.915Z,17.01
2019-03-05T09:37:43.835Z,16.23
2019-03-05T09:40:22.481Z,16.63
2019-03-05T09:42:58.094Z,17.93
2019-03-05T09:45:33.066Z,17.93
2019-03-05T09:48:07.793Z,18.51
2019-03-05T09:50:42.535Z,19.73
2019-03-05T09:53:16.415Z,20.09
2019-03-05T09:55:51.582Z,20.09
2019-03-05T09:58:26.697Z,18.00
2019-03-05T10:01:01.518Z,18.00
2019-03-05T10:03:35.520Z,17.40
2019-03-05T10:06:12.990Z,17.83
2019-03-05T10:08:47.693Z,17.51
2019-03-05T10:11:22.808Z,16.83
2019-03-05T10:13:57.860Z,16.36
2019-03-05T10:16:33.139Z,15.59
2019-03-05T10:19:08.530Z,15.63
2019-03-05T10:21:46.508Z,15.92
2019-03-05T10:24:20.093Z,17.11
2019-03-05T10:26:55.394Z,19.23
2019-03-05T10:29:30.257Z,23.27
2019-03-05T10:32:05.415Z,26.33
2019-03-05T10:34:39.830Z,23.58
2019-03-05T10:37:18.774Z,23.58
2019-03-05T10:39:51.121Z,22.05
2019-03-05T10:42:25.995Z,22.05
2019-03-05T10:45:01.310Z,21.29
2019-03-05T10:47:38.484Z,21.35
2019-03-05T10:50:19.272Z,21.04
2019-03-05T10:52:54.649Z,21.11
2019-03-05T10:55:29.066Z,22.07
2019-03-05T10:58:04.681Z,23.45
2019-03-05T11:00:43.453Z,25.41
2019-03-05T11:03:18.033Z,26.34
2019-03-05T11:05:54.040Z,26.34
2019-03-05T11:08:29.959Z,26.15
2019-03-05T11:11:13.468Z,25.94
2019-03-05T11:13:42.371Z,26.08
2019-03-05T11:16:18.681Z,25.95
2019-03-05T11:18:54.260Z,25.87
2019-03-05T11:21:29.546Z,26.15
2019-03-05T11:24:05.728Z,24.76
2019-03-05T11:26:40.562Z,23.34
2019-03-05T11:29:15.505Z,22.39
2019-03-05T11:31:50.815Z,22.88
2019-03-05T11:34:26.039Z,22.88
2019-03-05T11:37:01.013Z,22.93
2019-03-05T11:39:37.321Z,22.71
2019-03-05T11:42:12.326Z,22.23
2019-03-05T11:44:58.993Z,21.98
2019-03-05T11:47:25.330Z,21.96
2019-03-05T11:50:00.635Z,21.66
2019-03-05T11:52:35.266Z,20.91
2019-03-05T11:55:12.821Z,18.72
2019-03-05T11:57:47.798Z,17.76
2019-03-05T12:00:48.078Z,17.41
2019-03-05T12:03:24.814Z,17.11
2019-03-05T12:05:59.831Z,16.75
2019-03-05T12:08:34.993Z,16.47
2019-03-05T12:11:10.016Z,16.04
2019-03-05T12:13:46.114Z,15.31
2019-03-05T12:16:23.888Z,14.87
2019-03-05T12:19:00.837Z,14.65
2019-03-05T12:21:36.619Z,14.46
2019-03-05T12:24:11.632Z,13.85
2019-03-05T12:26:46.169Z,14.28
2019-03-05T12:29:21.857Z,14.02
2019-03-05T12:31:56.815Z,13.68
2019-03-05T12:34:32.528Z,14.03
2019-03-05T12:37:08.037Z,13.70
2019-03-05T12:39:43.700Z,13.70
2019-03-05T12:42:19.132Z,13.86
2019-03-05T12:44:54.137Z,14.61
2019-03-05T12:47:29.327Z,15.18
2019-03-05T12:50:06.601Z,14.69
2019-03-05T12:52:40.754Z,14.69
2019-03-05T12:55:15.953Z,13.92
2019-03-05T12:57:51.305Z,13.84
2019-03-05T13:00:27.033Z,13.58
2019-03-05T13:03:02.689Z,13.07
2019-03-05T13:05:37.505Z,13.23
2019-03-05T13:08:12.280Z,13.77
2019-03-05T13:10:47.671Z,13.87
2019-03-05T13:13:25.631Z,13.62
2019-03-05T13:15:59.484Z,13.07
2019-03-05T13:18:34.311Z,12.68
2019-03-05T13:21:08.898Z,12.68
2019-03-05T13:23:43.382Z,12.61
2019-03-05T13:26:21.617Z,12.45
2019-03-05T13:28:55.846Z,12.21
2019-03-05T13:31:31.984Z,12.16
2019-03-05T13:34:06.875Z,12.21
2019-03-05T13:36:42.649Z,12.34
2019-03-05T13:39:22.182Z,12.34
2019-03-05T13:41:56.663Z,11.94
2019-03-05T13:44:35.782Z,11.62
2019-03-05T13:47:13.311Z,11.71
2019-03-05T13:50:24.245Z,11.76
2019-03-05T13:53:40.858Z,11.39
2019-03-05T13:57:44.684Z,11.39
2019-03-05T14:00:19.804Z,11.34
2019-03-05T14:03:19.844Z,11.09
2019-03-05T14:06:50.681Z,11.01
2019-03-05T14:09:22.674Z,10.69
2019-03-05T14:11:57.522Z,10.56
2019-03-05T14:14:34.515Z,10.39
2019-03-05T14:17:20.732Z,10.51
2019-03-05T14:19:55.329Z,10.51
2019-03-05T14:22:30.071Z,10.54
2019-03-05T14:25:07.564Z,10.23
2019-03-05T14:27:42.128Z,10.22
2019-03-05T14:30:20.987Z,10.22
2019-03-05T14:33:00.774Z,10.53
2019-03-05T14:35:35.533Z,10.50
2019-03-05T14:38:10.130Z,10.15
2019-03-05T14:40:44.674Z,10.15
2019-03-05T14:43:18.851Z,10.26
2019-03-05T14:45:53.851Z,10.26
2019-03-05T14:48:29.341Z,9.89
2019-03-05T14:51:04.017Z,10.22
2019-03-05T14:53:39.218Z,10.44
2019-03-05T14:56:14.585Z,9.98
2019-03-05T14:58:48.524Z,9.89
2019-03-05T15:01:23.118Z,9.68
2019-03-05T15:03:57.812Z,9.68
2019-03-05T15:06:32.890Z,9.63
2019-03-05T15:09:07.673Z,9.44
2019-03-05T15:11:46.363Z,9.77
2019-03-05T15:14:21.473Z,10.01
2019-03-05T15:16:56.338Z,9.56
2019-03-05T15:19:31.694Z,9.90
2019-03-05T15:22:08.124Z,9.93
2019-03-05T15:24:43.188Z,9.94
2019-03-05T15:27:17.813Z,9.70
2019-03-05T15:31:03.820Z,9.45
2019-03-05T15:33:42.522Z,9.23
2019-03-05T15:36:23.842Z,9.29
2019-03-05T15:38:53.391Z,9.22
2019-03-05T15:41:28.139Z,8.95
2019-03-05T15:44:03.062Z,8.97
2019-03-05T15:46:37.905Z,8.99
2019-03-05T15:49:12.840Z,8.88
2019-03-05T15:51:47.252Z,8.49
2019-03-05T15:54:22.838Z,8.15
2019-03-05T15:56:57.685Z,8.36
2019-03-05T15:59:32.520Z,8.24
2019-03-05T16:02:06.795Z,8.43
2019-03-05T16:04:43.728Z,8.29
2019-03-05T16:07:18.306Z,7.94
2019-03-05T16:09:53.443Z,7.94
2019-03-05T16:12:27.955Z,8.32
2019-03-05T16:15:05.117Z,8.27
2019-03-05T16:17:39.660Z,7.97
2019-03-05T16:20:13.862Z,7.76
2019-03-05T16:22:51.139Z,7.71
2019-03-05T16:25:25.318Z,7.83
2019-03-05T16:28:02.338Z,7.81
2019-03-05T16:31:07.766Z,7.87
2019-03-05T16:34:09.458Z,7.73
2019-03-05T16:37:04.408Z,7.81
2019-03-05T16:40:05.366Z,7.47
2019-03-05T16:43:07.339Z,7.82
2019-03-05T16:46:03.323Z,7.63
2019-03-05T16:48:57.866Z,7.82
2019-03-05T16:51:45.992Z,7.80
2019-03-05T16:54:37.140Z,7.46
2019-03-05T16:57:31.064Z,7.60
2019-03-05T17:00:22.433Z,7.52
2019-03-05T17:03:03.016Z,7.22
2019-03-05T17:06:02.728Z,7.22
2019-03-05T17:08:48.684Z,6.77
2019-03-05T17:11:52.101Z,6.57
2019-03-05T17:14:28.315Z,6.49
2019-03-05T17:17:03.127Z,7.01
2019-03-05T17:19:39.272Z,7.14
2019-03-05T17:22:13.958Z,7.14
2019-03-05T17:24:49.087Z,6.74
2019-03-05T17:27:23.688Z,6.92
2019-03-05T17:29:58.991Z,7.48
2019-03-05T17:32:33.869Z,7.72
2019-03-05T17:35:08.675Z,7.90
2019-03-05T17:37:46.169Z,8.05
2019-03-05T17:40:22.558Z,7.79
2019-03-05T17:42:57.315Z,7.99
2019-03-05T17:45:33.829Z,7.99
2019-03-05T17:48:08.619Z,7.93
2019-03-05T17:50:43.489Z,7.65
2019-03-05T17:53:18.541Z,7.48
2019-03-05T17:55:53.590Z,7.09
2019-03-05T17:58:28.473Z,7.34
2019-03-05T18:01:03.094Z,7.34
2019-03-05T18:03:39.536Z,7.24
2019-03-05T18:06:14.350Z,7.10
2019-03-05T18:08:49.306Z,6.71
2019-03-05T18:11:25.677Z,6.91
2019-03-05T18:14:01.006Z,6.91
2019-03-05T18:16:36.952Z,6.81
2019-03-05T18:19:12.045Z,6.88
2019-03-05T18:21:47.417Z,6.63
2019-03-05T18:24:22.450Z,6.81
2019-03-05T18:26:57.439Z,7.01
2019-03-05T18:29:32.313Z,7.16
2019-03-05T18:32:06.990Z,7.16
2019-03-05T18:34:41.866Z,7.84
2019-03-05T18:37:16.597Z,7.69
2019-03-05T18:39:51.596Z,7.76
2019-03-05T18:42:26.176Z,7.43
2019-03-05T18:45:00.888Z,7.40
2019-03-05T18:47:37.358Z,7.60
2019-03-05T18:50:17.019Z,7.47
2019-03-05T18:52:52.316Z,7.47
2019-03-05T18:55:27.736Z,7.37
2019-03-05T18:58:02.832Z,7.28
2019-03-05T19:00:38.033Z,7.34
2019-03-05T19:03:13.118Z,7.48
2019-03-05T19:05:48.507Z,7.48
2019-03-05T19:08:23.685Z,7.52
2019-03-05T19:10:58.578Z,7.52
2019-03-05T19:13:32.657Z,7.40
2019-03-05T19:16:07.566Z,7.05
2019-03-05T19:18:42.668Z,6.76
2019-03-05T19:21:17.566Z,6.91
2019-03-05T19:23:52.611Z,6.92
2019-03-05T19:26:26.899Z,6.85
2019-03-05T19:29:01.535Z,6.89
2019-03-05T19:31:36.750Z,6.70
2019-03-05T19:34:12.332Z,6.70
2019-03-05T19:36:47.581Z,6.70
2019-03-05T19:39:21.632Z,6.61
2019-03-05T19:41:56.542Z,6.67
2019-03-05T19:44:31.483Z,6.61
2019-03-05T19:47:08.921Z,6.83
2019-03-05T19:49:44.579Z,6.83
2019-03-05T19:52:19.325Z,6.43
2019-03-05T19:54:54.037Z,6.43
2019-03-05T19:57:29.121Z,6.38
2019-03-05T20:00:04.939Z,6.43
2019-03-05T20:02:40.479Z,6.75
2019-03-05T20:05:17.113Z,6.77
2019-03-05T20:07:52.169Z,6.77
2019-03-05T20:10:27.345Z,6.93
2019-03-05T20:13:02.318Z,6.75
2019-03-05T20:15:39.478Z,6.66
2019-03-05T20:18:14.752Z,6.66
2019-03-05T20:20:50.572Z,6.66
2019-03-05T20:23:25.555Z,6.52
2019-03-05T20:25:59.670Z,6.76
2019-03-05T20:28:35.906Z,6.76
2019-03-05T20:31:12.565Z,7.02
2019-03-05T20:33:47.945Z,7.16
2019-03-05T20:36:23.597Z,6.76
2019-03-05T20:38:58.846Z,6.84
2019-03-05T20:41:34.456Z,6.76
2019-03-05T20:44:09.342Z,7.08
2019-03-05T20:46:44.130Z,7.01
2019-03-05T20:49:18.914Z,6.73
2019-03-05T20:51:54.313Z,6.52
2019-03-05T20:54:29.464Z,6.57
2019-03-05T20:57:04.451Z,6.63
2019-03-05T20:59:41.108Z,6.63
2019-03-05T21:02:16.142Z,7.09
2019-03-05T21:04:50.898Z,7.26
2019-03-05T21:07:25.780Z,7.22
2019-03-05T21:10:00.718Z,6.94
2019-03-05T21:12:35.530Z,6.92
2019-03-05T21:15:11.699Z,6.68
2019-03-05T21:17:48.187Z,6.66
2019-03-05T21:20:23.615Z,6.66
2019-03-05T21:22:57.713Z,6.76
2019-03-05T21:25:32.723Z,6.71
2019-03-05T21:28:08.111Z,6.70
2019-03-05T21:30:43.538Z,6.83
2019-03-05T21:33:18.660Z,6.51
2019-03-05T21:35:53.684Z,6.51
2019-03-05T21:38:29.177Z,6.68
2019-03-05T21:41:04.468Z,6.60
2019-03-05T21:43:39.736Z,6.80
2019-03-05T21:46:18.087Z,6.84
2019-03-05T21:48:53.357Z,6.93
2019-03-05T21:51:27.593Z,6.83
2019-03-05T21:54:02.327Z,6.72
2019-03-05T21:56:41.162Z,7.00
2019-03-05T21:59:16.584Z,6.93
2019-03-05T22:01:53.182Z,6.58
2019-03-05T22:04:28.903Z,6.79
2019-03-05T22:07:04.185Z,6.68
2019-03-05T22:09:39.144Z,6.63
2019-03-05T22:12:16.080Z,7.03
2019-03-05T22:14:51.336Z,7.19
2019-03-05T22:17:27.039Z,7.47
2019-03-05T22:20:03.337Z,7.54
2019-03-05T22:22:38.554Z,7.37
2019-03-05T22:25:16.727Z,7.39
2019-03-05T22:27:53.932Z,7.39
2019-03-05T22:30:29.586Z,7.57
2019-03-05T22:33:03.490Z,7.57
2019-03-05T22:35:38.324Z,7.81
2019-03-05T22:38:16.135Z,7.65
2019-03-05T22:40:50.848Z,7.60
2019-03-05T22:43:27.522Z,7.40
2019-03-05T22:46:02.756Z,6.95
2019-03-05T22:48:37.577Z,6.95
2019-03-05T22:51:13.876Z,7.16
2019-03-05T22:53:49.533Z,7.18
2019-03-05T22:56:24.323Z,6.97
2019-03-05T22:58:59.039Z,6.97
2019-03-05T23:01:42.679Z,6.91
2019-03-05T23:04:31.451Z,7.04
2019-03-05T23:07:07.028Z,7.04
2019-03-05T23:09:41.888Z,7.44
2019-03-05T23:12:17.146Z,7.56
2019-03-05T23:14:53.325Z,7.59
2019-03-05T23:17:27.503Z,7.61
2019-03-05T23:20:01.714Z,7.60
2019-03-05T23:22:37.264Z,7.49
2019-03-05T23:25:15.517Z,7.45
2019-03-05T23:27:49.626Z,7.57
2019-03-05T23:30:23.946Z,7.46
2019-03-05T23:33:02.565Z,7.37
2019-03-05T23:35:37.161Z,7.42
2019-03-05T23:38:11.902Z,7.13
2019-03-05T23:40:46.843Z,6.94
2019-03-05T23:43:22.475Z,6.69
2019-03-05T23:45:57.077Z,6.67
2019-03-05T23:48:31.790Z,6.67
2019-03-05T23:51:06.623Z,6.68
2019-03-05T23:53:41.338Z,6.63
2019-03-05T23:56:16.312Z,6.69
2019-03-05T23:58:50.846Z,6.64
